Terminal Aerodrome Forecast
Issued by NWS Louisville, KY

Home | Current Version | Previous Version | Text Only | Print | Product List | Glossary On
Versions: 1 2 3 4 5 6 7 8 9 10 11 12 13 14 15 16 17 18
000
FTUS43 KLMK 301729
TAFSDF
TAF
KSDF 301729Z 3018/0124 12008KT 4SM -SHRA BR BKN012
     FM301900 12011KT P6SM VCSH BKN040
     FM302300 13011KT P6SM VCTS BKN040CB
      TEMPO 0101/0105 3SM -TSRA BR BKN025CB
     FM010600 20006KT P6SM SCT025 BKN050
     FM011400 22008KT P6SM SCT040
     FM012100 22010G16KT P6SM VCTS BKN040CB=

USA.gov is the U.S. government's official web portal to all federal, state and local government web resources and services.